Home > Products > Valid Products > TAF

000
FTUS44 KSHV 302024 AAA
TAFGGG
TAF AMD
KGGG 302024Z 3020/3118 19007KT P6SM OVC035
     FM310300 17005KT P6SM BKN030 BKN200
     FM310800 18008KT P6SM BKN015
      TEMPO 3110/3114 4SM BR OVC008
     FM311500 20010KT P6SM BKN015 OVC025=



000
FTUS44 KSHV 302024 AAA
TAFTYR
TAF AMD
KTYR 302024Z 3020/3118 20007KT P6SM OVC030
     FM302100 19008KT P6SM SCT030 OVC040
     FM310300 17005KT P6SM BKN030 BKN200
     FM310800 18008KT P6SM BKN015
      TEMPO 3110/3114 4SM BR OVC008
     FM311500 20010KT P6SM BKN015 OVC025=



000
FTUS44 KSHV 302024 AAA
TAFTYR
TAF AMD
KTYR 302024Z 3020/3118 20007KT P6SM OVC030
     FM302100 19008KT P6SM SCT030 OVC040
     FM310300 17005KT P6SM BKN030 BKN200
     FM310800 18008KT P6SM BKN015
      TEMPO 3110/3114 4SM BR OVC008
     FM311500 20010KT P6SM BKN015 OVC025=



000
FTUS44 KSHV 302024 AAA
TAFGGG
TAF AMD
KGGG 302024Z 3020/3118 19007KT P6SM OVC035
     FM310300 17005KT P6SM BKN030 BKN200
     FM310800 18008KT P6SM BKN015
      TEMPO 3110/3114 4SM BR OVC008
     FM311500 20010KT P6SM BKN015 OVC025=



000
FTUS44 KSHV 301743
TAFMLU
TAF
KMLU 301743Z 3018/3118 VRB04KT P6SM SCT020 OVC050
      TEMPO 3018/3019 BKN020
     FM302100 24005KT P6SM SCT030 BKN050
     FM310300 18003KT P6SM FEW035 SCT200
     FM311200 20006KT P6SM BKN020 OVC150
      TEMPO 3112/3115 5SM BR OVC015
     FM311500 23008KT P6SM BKN015 OVC030=



000
FTUS44 KSHV 301743
TAFGGG
TAF
KGGG 301743Z 3018/3118 20008KT P6SM BKN020 OVC030
     FM302100 19009KT P6SM BKN025 OVC035
     FM310300 17005KT P6SM BKN030 BKN200
     FM310800 18008KT P6SM BKN015
      TEMPO 3110/3114 4SM BR OVC008
     FM311500 20010KT P6SM BKN015 OVC025=



000
FTUS44 KSHV 301743
TAFGGG
TAF
KGGG 301743Z 3018/3118 20008KT P6SM BKN020 OVC030
     FM302100 19009KT P6SM BKN025 OVC035
     FM310300 17005KT P6SM BKN030 BKN200
     FM310800 18008KT P6SM BKN015
      TEMPO 3110/3114 4SM BR OVC008
     FM311500 20010KT P6SM BKN015 OVC025=



000
FTUS44 KSHV 301743
TAFTYR
TAF
KTYR 301743Z 3018/3118 19008KT P6SM BKN015 BKN025 OVC030
     FM302100 19009KT P6SM BKN025 OVC035
     FM310300 17005KT P6SM BKN030 BKN200
     FM310800 18008KT P6SM BKN015
      TEMPO 3110/3114 4SM BR OVC008
     FM311500 20010KT P6SM BKN015 OVC025=



000
FTUS44 KSHV 301743
TAFSHV
TAF
KSHV 301743Z 3018/3118 VRB04KT P6SM SCT020 BKN035
      TEMPO 3018/3019 BKN025 OVC035
     FM302100 18005KT P6SM SCT030 BKN040
     FM310300 17004KT P6SM FEW035 BKN200
     FM310900 20006KT P6SM BKN020 OVC150
      TEMPO 3110/3114 5SM BR OVC015
     FM311500 21008KT P6SM BKN020 OVC030=



000
FTUS44 KSHV 301743
TAFSHV
TAF
KSHV 301743Z 3018/3118 VRB04KT P6SM SCT020 BKN035
      TEMPO 3018/3019 BKN025 OVC035
     FM302100 18005KT P6SM SCT030 BKN040
     FM310300 17004KT P6SM FEW035 BKN200
     FM310900 20006KT P6SM BKN020 OVC150
      TEMPO 3110/3114 5SM BR OVC015
     FM311500 21008KT P6SM BKN020 OVC030=



000
FTUS44 KSHV 301743
TAFTYR
TAF
KTYR 301743Z 3018/3118 19008KT P6SM BKN015 BKN025 OVC030
     FM302100 19009KT P6SM BKN025 OVC035
     FM310300 17005KT P6SM BKN030 BKN200
     FM310800 18008KT P6SM BKN015
      TEMPO 3110/3114 4SM BR OVC008
     FM311500 20010KT P6SM BKN015 OVC025=



000
FTUS44 KSHV 301743
TAFELD
TAF
KELD 301743Z 3018/3118 06008KT P6SM BKN035
     FM302100 24005KT P6SM SCT040 BKN050
     FM310300 18003KT P6SM FEW035 SCT200
     FM311200 20006KT P6SM BKN020 OVC150
      TEMPO 3112/3115 5SM BR OVC015
     FM311500 23008KT P6SM BKN015 OVC030=



000
FTUS44 KSHV 301743
TAFTXK
TAF
KTXK 301743Z 3018/3118 16006KT P6SM SCT030 BKN040
      TEMPO 3018/3019 BKN030
     FM310300 17004KT P6SM BKN030 BKN200
     FM310900 20006KT P6SM BKN020 OVC150
      TEMPO 3110/3114 5SM BR OVC015
     FM311500 21008KT P6SM BKN020 OVC030=



000
FTUS44 KSHV 301743
TAFLFK
TAF
KLFK 301743Z 3018/3118 21008KT P6SM FEW025 BKN035
     FM302100 24009KT P6SM SCT040 BKN050
     FM310300 18003KT P6SM FEW035 SCT200
     FM310700 20006KT P6SM BKN015 OVC150
      TEMPO 3109/3113 2SM BR OVC008
     FM311500 23008KT P6SM BKN015 OVC025=



000
FTUS44 KSHV 301743
TAFELD
TAF
KELD 301743Z 3018/3118 06008KT P6SM BKN035
     FM302100 24005KT P6SM SCT040 BKN050
     FM310300 18003KT P6SM FEW035 SCT200
     FM311200 20006KT P6SM BKN020 OVC150
      TEMPO 3112/3115 5SM BR OVC015
     FM311500 23008KT P6SM BKN015 OVC030=



000
FTUS44 KSHV 301743
TAFTXK
TAF
KTXK 301743Z 3018/3118 16006KT P6SM SCT030 BKN040
      TEMPO 3018/3019 BKN030
     FM310300 17004KT P6SM BKN030 BKN200
     FM310900 20006KT P6SM BKN020 OVC150
      TEMPO 3110/3114 5SM BR OVC015
     FM311500 21008KT P6SM BKN020 OVC030=



000
FTUS44 KSHV 301743
TAFMLU
TAF
KMLU 301743Z 3018/3118 VRB04KT P6SM SCT020 OVC050
      TEMPO 3018/3019 BKN020
     FM302100 24005KT P6SM SCT030 BKN050
     FM310300 18003KT P6SM FEW035 SCT200
     FM311200 20006KT P6SM BKN020 OVC150
      TEMPO 3112/3115 5SM BR OVC015
     FM311500 23008KT P6SM BKN015 OVC030=



000
FTUS44 KSHV 301743
TAFLFK
TAF
KLFK 301743Z 3018/3118 21008KT P6SM FEW025 BKN035
     FM302100 24009KT P6SM SCT040 BKN050
     FM310300 18003KT P6SM FEW035 SCT200
     FM310700 20006KT P6SM BKN015 OVC150
      TEMPO 3109/3113 2SM BR OVC008
     FM311500 23008KT P6SM BKN015 OVC025=



000
FTUS44 KSHV 301537 AAA
TAFTYR
TAF AMD
KTYR 301537Z 3016/3112 15007KT 5SM BR BKN007 OVC015
     FM301700 16008KT P6SM BKN015 OVC025
     FM302200 18008KT P6SM SCT040
     FM310600 17007KT P6SM BKN015
      TEMPO 3108/3112 5SM BR OVC008=



000
FTUS44 KSHV 301534 AAA
TAFMLU
TAF AMD
KMLU 301534Z 3016/3112 36005KT 6SM -RA BR BKN006 OVC015
     FM301800 VRB04KT P6SM BKN015
      TEMPO 3018/3021 OVC010
     FM302200 VRB04KT P6SM SCT025
     FM310800 23005KT 6SM BR BKN150
      TEMPO 3110/3112 2SM BR=



000
FTUS44 KSHV 301426 AAB
TAFLFK
TAF AMD
KLFK 301426Z 3014/3112 18005KT P6SM FEW006
     FM301500 20005KT P6SM SCT015
     FM301800 21006KT P6SM SCT030
     FM310600 18004KT P6SM BKN010
      TEMPO 3108/3112 3SM BR OVC005=



000
FTUS44 KSHV 301426 AAB
TAFLFK
TAF AMD
KLFK 301426Z 3014/3112 18005KT P6SM FEW006
     FM301500 20005KT P6SM SCT015
     FM301800 21006KT P6SM SCT030
     FM310600 18004KT P6SM BKN010
      TEMPO 3108/3112 3SM BR OVC005=



000
FTUS44 KSHV 301245 AAA
TAFLFK
TAF AMD
KLFK 301245Z 3013/3112 18005KT P6SM BKN003
      TEMPO 3013/3015 2SM BR SCT005
     FM301500 20005KT P6SM OVC015
      TEMPO 3015/3018 BKN025
     FM302200 21006KT P6SM SCT030
     FM310600 18004KT P6SM BKN010
      TEMPO 3108/3112 3SM BR OVC005=



000
FTUS44 KSHV 301245 AAA
TAFLFK
TAF AMD
KLFK 301245Z 3013/3112 18005KT P6SM BKN003
      TEMPO 3013/3015 2SM BR SCT005
     FM301500 20005KT P6SM OVC015
      TEMPO 3015/3018 BKN025
     FM302200 21006KT P6SM SCT030
     FM310600 18004KT P6SM BKN010
      TEMPO 3108/3112 3SM BR OVC005=



000
FTUS44 KSHV 301120
TAFGGG
TAF
KGGG 301120Z 3012/3112 20005KT P6SM OVC015
     FM301600 16007KT P6SM OVC020
      TEMPO 3018/3022 BKN030
     FM302200 18007KT P6SM SCT040
     FM310700 17006KT P6SM BKN015
      TEMPO 3110/3112 4SM BR OVC008=



000
FTUS44 KSHV 301120
TAFSHV
TAF
KSHV 301120Z 3012/3112 VRB03KT P6SM BKN025
      TEMPO 3012/3016 OVC015
     FM301600 19006KT P6SM BKN025
      TEMPO 3016/3019 OVC015
     FM302100 19005KT P6SM SCT030
     FM310600 21004KT P6SM SCT020 BKN150
      TEMPO 3109/3112 3SM BR BKN015=



000
FTUS44 KSHV 301120
TAFLFK
TAF
KLFK 301120Z 3012/3112 18005KT P6SM BKN020
      TEMPO 3012/3014 SCT030
     FM301400 20005KT P6SM OVC015
      TEMPO 3016/3018 BKN025
     FM302200 21006KT P6SM SCT030
     FM310600 18004KT P6SM BKN010
      TEMPO 3108/3112 3SM BR OVC005=



000
FTUS44 KSHV 301120
TAFTYR
TAF
KTYR 301120Z 3012/3112 20010KT P6SM OVC015
     FM301600 16008KT P6SM OVC020
      TEMPO 3018/3022 BKN030
     FM302200 18008KT P6SM SCT040
     FM310600 17007KT P6SM BKN015
      TEMPO 3108/3112 5SM BR OVC008=



000
FTUS44 KSHV 301120
TAFTXK
TAF
KTXK 301120Z 3012/3112 VRB03KT P6SM SCT080
      TEMPO 3014/3018 BKN030
     FM310200 17004KT P6SM BKN120
      TEMPO 3108/3112 5SM BR BKN025=



000
FTUS44 KSHV 301120
TAFMLU
TAF
KMLU 301120Z 3012/3112 24008KT P6SM OVC090
      TEMPO 3013/3015 BKN025
     FM301500 VRB04KT P6SM BKN020
      TEMPO 3015/3019 OVC010
     FM302200 VRB04KT P6SM SCT025
     FM310800 23005KT 6SM BR BKN150
      TEMPO 3110/3112 2SM BR=



000
FTUS44 KSHV 301120
TAFELD
TAF
KELD 301120Z 3012/3112 VRB03KT P6SM OVC020
      TEMPO 3012/3015 4SM BR SCT030
     FM301500 07004KT P6SM SCT060
      TEMPO 3015/3018 BKN050
     FM310300 15004KT P6SM BKN120
      TEMPO 3108/3112 2SM BR BKN020=



000
FTUS44 KSHV 301120
TAFGGG
TAF
KGGG 301120Z 3012/3112 20005KT P6SM OVC015
     FM301600 16007KT P6SM OVC020
      TEMPO 3018/3022 BKN030
     FM302200 18007KT P6SM SCT040
     FM310700 17006KT P6SM BKN015
      TEMPO 3110/3112 4SM BR OVC008=



000
FTUS44 KSHV 301120
TAFTYR
TAF
KTYR 301120Z 3012/3112 20010KT P6SM OVC015
     FM301600 16008KT P6SM OVC020
      TEMPO 3018/3022 BKN030
     FM302200 18008KT P6SM SCT040
     FM310600 17007KT P6SM BKN015
      TEMPO 3108/3112 5SM BR OVC008=



000
FTUS44 KSHV 301120
TAFTXK
TAF
KTXK 301120Z 3012/3112 VRB03KT P6SM SCT080
      TEMPO 3014/3018 BKN030
     FM310200 17004KT P6SM BKN120
      TEMPO 3108/3112 5SM BR BKN025=



000
FTUS44 KSHV 301120
TAFMLU
TAF
KMLU 301120Z 3012/3112 24008KT P6SM OVC090
      TEMPO 3013/3015 BKN025
     FM301500 VRB04KT P6SM BKN020
      TEMPO 3015/3019 OVC010
     FM302200 VRB04KT P6SM SCT025
     FM310800 23005KT 6SM BR BKN150
      TEMPO 3110/3112 2SM BR=



000
FTUS44 KSHV 301120
TAFELD
TAF
KELD 301120Z 3012/3112 VRB03KT P6SM OVC020
      TEMPO 3012/3015 4SM BR SCT030
     FM301500 07004KT P6SM SCT060
      TEMPO 3015/3018 BKN050
     FM310300 15004KT P6SM BKN120
      TEMPO 3108/3112 2SM BR BKN020=



000
FTUS44 KSHV 301120
TAFSHV
TAF
KSHV 301120Z 3012/3112 VRB03KT P6SM BKN025
      TEMPO 3012/3016 OVC015
     FM301600 19006KT P6SM BKN025
      TEMPO 3016/3019 OVC015
     FM302100 19005KT P6SM SCT030
     FM310600 21004KT P6SM SCT020 BKN150
      TEMPO 3109/3112 3SM BR BKN015=



000
FTUS44 KSHV 301120
TAFLFK
TAF
KLFK 301120Z 3012/3112 18005KT P6SM BKN020
      TEMPO 3012/3014 SCT030
     FM301400 20005KT P6SM OVC015
      TEMPO 3016/3018 BKN025
     FM302200 21006KT P6SM SCT030
     FM310600 18004KT P6SM BKN010
      TEMPO 3108/3112 3SM BR OVC005=



000
FTUS44 KSHV 300921 AAA
TAFELD
TAF AMD
KELD 300921Z 3009/3106 25005KT P6SM SCT020 BKN100
      TEMPO 3010/3013 -SHRA OVC015
     FM301300 VRB04KT P6SM BKN050
     FM301800 VRB04KT P6SM OVC050=



000
FTUS44 KSHV 300921 AAA
TAFELD
TAF AMD
KELD 300921Z 3009/3106 25005KT P6SM SCT020 BKN100
      TEMPO 3010/3013 -SHRA OVC015
     FM301300 VRB04KT P6SM BKN050
     FM301800 VRB04KT P6SM OVC050=



000
FTUS44 KSHV 300918 AAA
TAFGGG
TAF AMD
KGGG 300918Z 3009/3106 18006KT P6SM SKC
      TEMPO 3011/3015 BKN020
     FM301500 18010KT P6SM BKN030
      TEMPO 3015/3019 OVC020
     FM310300 16005KT P6SM BKN250=



000
FTUS44 KSHV 300918 AAA
TAFGGG
TAF AMD
KGGG 300918Z 3009/3106 18006KT P6SM SKC
      TEMPO 3011/3015 BKN020
     FM301500 18010KT P6SM BKN030
      TEMPO 3015/3019 OVC020
     FM310300 16005KT P6SM BKN250=



000
FTUS44 KSHV 300914 AAB
TAFLFK
TAF AMD
KLFK 300914Z 3009/3106 16005KT P6SM BKN015 OVC100
      TEMPO 3009/3012 SCT020
     FM301600 19004KT P6SM OVC025
     FM302100 21006KT P6SM OVC050=



000
FTUS44 KSHV 300914 AAB
TAFLFK
TAF AMD
KLFK 300914Z 3009/3106 16005KT P6SM BKN015 OVC100
      TEMPO 3009/3012 SCT020
     FM301600 19004KT P6SM OVC025
     FM302100 21006KT P6SM OVC050=



000
FTUS44 KSHV 300912 AAA
TAFTYR
TAF AMD
KTYR 300912Z 3009/3106 20010KT P6SM SKC
      TEMPO 3011/3015 BKN015
     FM301500 18010KT P6SM BKN030
      TEMPO 3015/3019 OVC020
     FM310300 16005KT P6SM BKN250=



000
FTUS44 KSHV 300912 AAA
TAFTYR
TAF AMD
KTYR 300912Z 3009/3106 20010KT P6SM SKC
      TEMPO 3011/3015 BKN015
     FM301500 18010KT P6SM BKN030
      TEMPO 3015/3019 OVC020
     FM310300 16005KT P6SM BKN250=



000
FTUS44 KSHV 300906 AAA
TAFMLU
TAF AMD
KMLU 300906Z 3009/3106 24012KT P6SM BKN100
     FM301100 VRB04KT P6SM VCTS BKN030CB
     FM301600 VRB04KT P6SM BKN040
     FM302100 32005KT P6SM SCT050=



000
FTUS44 KSHV 300903 AAB
TAFSHV
TAF AMD
KSHV 300903Z 3009/3106 20006KT P6SM SCT100
      TEMPO 3012/3015 4SM BR BKN010
     FM301500 VRB04KT P6SM OVC015
     FM302100 19005KT P6SM OVC050=



000
FTUS44 KSHV 300903 AAB
TAFSHV
TAF AMD
KSHV 300903Z 3009/3106 20006KT P6SM SCT100
      TEMPO 3012/3015 4SM BR BKN010
     FM301500 VRB04KT P6SM OVC015
     FM302100 19005KT P6SM OVC050=



000
FTUS44 KSHV 300738 AAA
TAFLFK
TAF AMD
KLFK 300738Z 3008/3106 18006KT P6SM BKN015
      TEMPO 3008/3010 SCT020
     FM301100 16003KT P6SM OVC010
      TEMPO 3012/3014 3SM BR OVC004
     FM301800 19004KT P6SM OVC025
     FM302100 21006KT P6SM OVC050=



000
FTUS44 KSHV 300738 AAA
TAFLFK
TAF AMD
KLFK 300738Z 3008/3106 18006KT P6SM BKN015
      TEMPO 3008/3010 SCT020
     FM301100 16003KT P6SM OVC010
      TEMPO 3012/3014 3SM BR OVC004
     FM301800 19004KT P6SM OVC025
     FM302100 21006KT P6SM OVC050=



000
FTUS44 KSHV 300526
TAFELD
TAF
KELD 300526Z 3006/3106 20007KT P6SM SKC
     FM300900 22004KT 5SM -SHRA BR BKN050
     FM301200 22005KT 4SM BR VCSH BKN050
     FM301800 VRB04KT P6SM OVC050=



000
FTUS44 KSHV 300526
TAFLFK
TAF
KLFK 300526Z 3006/3106 18006KT P6SM SKC
     FM300900 16002KT 6SM BR OVC007
     FM301200 16003KT 3SM BR OVC004
     FM301500 19004KT P6SM OVC007
     FM301800 19004KT P6SM OVC025
     FM302100 21006KT P6SM OVC050=



000
FTUS44 KSHV 300526
TAFELD
TAF
KELD 300526Z 3006/3106 20007KT P6SM SKC
     FM300900 22004KT 5SM -SHRA BR BKN050
     FM301200 22005KT 4SM BR VCSH BKN050
     FM301800 VRB04KT P6SM OVC050=



000
FTUS44 KSHV 300526
TAFGGG
TAF
KGGG 300526Z 3006/3106 18006KT P6SM SKC
     FM300900 18006KT P6SM OVC015
      TEMPO 3009/3012 4SM -SHRA BR BKN008
     FM301200 18005KT 6SM -SHRA BR OVC008
     FM302100 18006KT P6SM OVC025=



000
FTUS44 KSHV 300526
TAFMLU
TAF
KMLU 300526Z 3006/3106 21008KT P6SM SKC
     FM300900 24005KT 6SM BR OVC015
      TEMPO 3009/3012 5SM -SHRA BR OVC015
     FM301200 25005KT 6SM -SHRA BR OVC015
     FM302100 32005KT P6SM OVC035=



000
FTUS44 KSHV 300526
TAFSHV
TAF
KSHV 300526Z 3006/3106 18006KT P6SM SKC
     FM300900 20005KT 5SM BR BKN008 OVC015
      TEMPO 3009/3012 4SM -SHRA BR BKN015
     FM301200 22005KT 4SM -SHRA BR OVC008
     FM301800 VRB04KT P6SM OVC015
     FM302100 19005KT P6SM OVC050=



000
FTUS44 KSHV 300526
TAFTYR
TAF
KTYR 300526Z 3006/3106 20010KT P6SM SKC
     FM300900 18007KT P6SM OVC015
      TEMPO 3009/3012 5SM -SHRA BR BKN004
     FM301200 18006KT 4SM -SHRA BR BKN004 OVC008
     FM302100 17006KT P6SM OVC025
     FM310300 16005KT P6SM BKN250=



000
FTUS44 KSHV 300526
TAFTYR
TAF
KTYR 300526Z 3006/3106 20010KT P6SM SKC
     FM300900 18007KT P6SM OVC015
      TEMPO 3009/3012 5SM -SHRA BR BKN004
     FM301200 18006KT 4SM -SHRA BR BKN004 OVC008
     FM302100 17006KT P6SM OVC025
     FM310300 16005KT P6SM BKN250=



000
FTUS44 KSHV 300526
TAFMLU
TAF
KMLU 300526Z 3006/3106 21008KT P6SM SKC
     FM300900 24005KT 6SM BR OVC015
      TEMPO 3009/3012 5SM -SHRA BR OVC015
     FM301200 25005KT 6SM -SHRA BR OVC015
     FM302100 32005KT P6SM OVC035=



000
FTUS44 KSHV 300526
TAFTXK
TAF
KTXK 300526Z 3006/3106 21006KT P6SM VCSH BKN080
     FM300800 22004KT P6SM SCT070
     FM301500 22005KT P6SM OVC050
     FM302100 07004KT P6SM SCT050 BKN100=



000
FTUS44 KSHV 300526
TAFSHV
TAF
KSHV 300526Z 3006/3106 18006KT P6SM SKC
     FM300900 20005KT 5SM BR BKN008 OVC015
      TEMPO 3009/3012 4SM -SHRA BR BKN015
     FM301200 22005KT 4SM -SHRA BR OVC008
     FM301800 VRB04KT P6SM OVC015
     FM302100 19005KT P6SM OVC050=



000
FTUS44 KSHV 300526
TAFLFK
TAF
KLFK 300526Z 3006/3106 18006KT P6SM SKC
     FM300900 16002KT 6SM BR OVC007
     FM301200 16003KT 3SM BR OVC004
     FM301500 19004KT P6SM OVC007
     FM301800 19004KT P6SM OVC025
     FM302100 21006KT P6SM OVC050=



000
FTUS44 KSHV 300526
TAFTXK
TAF
KTXK 300526Z 3006/3106 21006KT P6SM VCSH BKN080
     FM300800 22004KT P6SM SCT070
     FM301500 22005KT P6SM OVC050
     FM302100 07004KT P6SM SCT050 BKN100=



000
FTUS44 KSHV 300526
TAFGGG
TAF
KGGG 300526Z 3006/3106 18006KT P6SM SKC
     FM300900 18006KT P6SM OVC015
      TEMPO 3009/3012 4SM -SHRA BR BKN008
     FM301200 18005KT 6SM -SHRA BR OVC008
     FM302100 18006KT P6SM OVC025=



000
FTUS44 KSHV 300131 AAA
TAFELD
TAF AMD
KELD 300131Z 3002/3024 20005KT P6SM SKC
     FM300600 20005KT 5SM -SHRA VCTS OVC025CB
     FM300900 22004KT 5SM -SHRA BR BKN003 OVC006
     FM301500 22005KT 4SM BR VCSH BKN005 OVC010
     FM301800 06002KT P6SM OVC007=



000
FTUS44 KSHV 300131 AAA
TAFELD
TAF AMD
KELD 300131Z 3002/3024 20005KT P6SM SKC
     FM300600 20005KT 5SM -SHRA VCTS OVC025CB
     FM300900 22004KT 5SM -SHRA BR BKN003 OVC006
     FM301500 22005KT 4SM BR VCSH BKN005 OVC010
     FM301800 06002KT P6SM OVC007=



000
FTUS44 KSHV 300130 AAA
TAFGGG
TAF AMD
KGGG 300130Z 3002/3024 18009KT P6SM SKC
     FM300600 19007KT P6SM OVC025
     FM300900 18006KT 5SM BR BKN008 OVC015
      TEMPO 3009/3012 4SM -SHRA BR BKN004
     FM301200 18005KT 4SM -SHRA BR BKN004 OVC008
     FM302100 18006KT P6SM OVC015=



000
FTUS44 KSHV 300130 AAA
TAFTXK
TAF AMD
KTXK 300130Z 3002/3024 20008KT P6SM SKC
     FM300600 20005KT 5SM -SHRA VCTS OVC025CB
     FM300900 22004KT 5SM -SHRA BR BKN003 OVC006
     FM301500 22005KT 4SM BR VCSH BKN005 OVC010
     FM302100 07004KT P6SM OVC015=



000
FTUS44 KSHV 300130 AAA
TAFTYR
TAF AMD
KTYR 300130Z 3002/3024 21012KT P6SM SKC
     FM300600 19008KT P6SM OVC025
     FM300900 18007KT 5SM BR BKN008 OVC015
      TEMPO 3009/3012 4SM -SHRA BR BKN004
     FM301200 18006KT 4SM -SHRA BR BKN004 OVC008
     FM302100 17006KT P6SM OVC015=



000
FTUS44 KSHV 300130 AAA
TAFLFK
TAF AMD
KLFK 300130Z 3002/3024 17011KT P6SM SKC
     FM300600 17005KT P6SM OVC015
     FM300900 16002KT 2SM BR OVC004
     FM301500 16003KT 5SM BR OVC007
     FM302100 19004KT P6SM OVC015=



000
FTUS44 KSHV 300130 AAA
TAFTXK
TAF AMD
KTXK 300130Z 3002/3024 20008KT P6SM SKC
     FM300600 20005KT 5SM -SHRA VCTS OVC025CB
     FM300900 22004KT 5SM -SHRA BR BKN003 OVC006
     FM301500 22005KT 4SM BR VCSH BKN005 OVC010
     FM302100 07004KT P6SM OVC015=



000
FTUS44 KSHV 300130 AAA
TAFGGG
TAF AMD
KGGG 300130Z 3002/3024 18009KT P6SM SKC
     FM300600 19007KT P6SM OVC025
     FM300900 18006KT 5SM BR BKN008 OVC015
      TEMPO 3009/3012 4SM -SHRA BR BKN004
     FM301200 18005KT 4SM -SHRA BR BKN004 OVC008
     FM302100 18006KT P6SM OVC015=



000
FTUS44 KSHV 300130 AAA
TAFTYR
TAF AMD
KTYR 300130Z 3002/3024 21012KT P6SM SKC
     FM300600 19008KT P6SM OVC025
     FM300900 18007KT 5SM BR BKN008 OVC015
      TEMPO 3009/3012 4SM -SHRA BR BKN004
     FM301200 18006KT 4SM -SHRA BR BKN004 OVC008
     FM302100 17006KT P6SM OVC015=



000
FTUS44 KSHV 300130 AAA
TAFLFK
TAF AMD
KLFK 300130Z 3002/3024 17011KT P6SM SKC
     FM300600 17005KT P6SM OVC015
     FM300900 16002KT 2SM BR OVC004
     FM301500 16003KT 5SM BR OVC007
     FM302100 19004KT P6SM OVC015=



000
FTUS44 KSHV 300129 AAA
TAFSHV
TAF AMD
KSHV 300129Z 3001/3024 20010KT P6SM SKC
     FM300600 19009KT P6SM OVC025
     FM300900 20005KT 5SM BR BKN008 OVC015
      TEMPO 3009/3012 4SM -SHRA BR BKN004
     FM301200 22005KT 4SM -SHRA BR BKN004 OVC008
     FM301800 VRB04KT P6SM OVC015=



000
FTUS44 KSHV 300129 AAA
TAFSHV
TAF AMD
KSHV 300129Z 3001/3024 20010KT P6SM SKC
     FM300600 19009KT P6SM OVC025
     FM300900 20005KT 5SM BR BKN008 OVC015
      TEMPO 3009/3012 4SM -SHRA BR BKN004
     FM301200 22005KT 4SM -SHRA BR BKN004 OVC008
     FM301800 VRB04KT P6SM OVC015=



000
FTUS44 KSHV 292341 CCA
TAFELD
TAF COR
KELD 292341Z 3000/3024 20016G21KT P6SM SKC
     FM300600 20005KT 5SM -SHRA VCTS OVC025CB
     FM300900 22004KT 5SM -SHRA BR BKN003 OVC006
     FM301500 22005KT 4SM BR VCSH BKN005 OVC010
     FM301800 06002KT P6SM OVC007=



000
FTUS44 KSHV 292341 CCA
TAFELD
TAF COR
KELD 292341Z 3000/3024 20016G21KT P6SM SKC
     FM300600 20005KT 5SM -SHRA VCTS OVC025CB
     FM300900 22004KT 5SM -SHRA BR BKN003 OVC006
     FM301500 22005KT 4SM BR VCSH BKN005 OVC010
     FM301800 06002KT P6SM OVC007=



000
FTUS44 KSHV 292340
TAFELD
TAF
KELD 292340Z 3000/3024 20016G21KT P6SM SKC
     FM300600 20005KT 5SM -SHRA VCTS OVC025CB
     FM300900 22004KT 5SM -SHRA BR BKN003 OVC006
     FM301500 22005KT 4SM BR VCSH BKN005 OVC010=



000
FTUS44 KSHV 292340
TAFLFK
TAF
KLFK 292340Z 3000/3024 18016G22KT P6SM FEW050
     FM300600 17005KT P6SM OVC015
     FM300900 16002KT 2SM BR OVC004
     FM301500 16003KT 5SM BR OVC007
     FM302100 19004KT P6SM OVC015=



000
FTUS44 KSHV 292340
TAFMLU
TAF
KMLU 292340Z 3000/3024 21010KT P6SM SKC
     FM300600 21007KT P6SM FEW150
     FM300900 24005KT 5SM BR OVC015
      TEMPO 3009/3012 4SM -SHRA BR OVC015
     FM301200 25005KT 4SM -SHRA BR OVC007
     FM302100 32005KT P6SM OVC025=



000
FTUS44 KSHV 292340
TAFTXK
TAF
KTXK 292340Z 3000/3024 20010G20KT P6SM SCT060
     FM300600 20005KT 5SM -SHRA VCTS OVC025CB
     FM300900 22004KT 5SM -SHRA BR BKN003 OVC006
     FM301500 22005KT 4SM BR VCSH BKN005 OVC010
     FM302100 07004KT P6SM OVC015=



000
FTUS44 KSHV 292340
TAFTYR
TAF
KTYR 292340Z 3000/3024 18021G28KT P6SM SKC
     FM300600 19008KT P6SM OVC025
     FM300900 18007KT 5SM BR BKN008 OVC015
      TEMPO 3009/3012 4SM -SHRA BR BKN004
     FM301200 18006KT 4SM -SHRA BR BKN004 OVC008
     FM302100 17006KT P6SM OVC015=



000
FTUS44 KSHV 292340
TAFGGG
TAF
KGGG 292340Z 3000/3024 20014G22KT P6SM SKC
     FM300600 19007KT P6SM OVC025
     FM300900 18006KT 5SM BR BKN008 OVC015
      TEMPO 3009/3012 4SM -SHRA BR BKN004
     FM301200 18005KT 4SM -SHRA BR BKN004 OVC008
     FM302100 18006KT P6SM OVC015=



000
FTUS44 KSHV 292340
TAFSHV
TAF
KSHV 292340Z 3000/3024 22012G20KT P6SM FEW035
     FM300600 19009KT P6SM OVC025
     FM300900 20005KT 5SM BR BKN008 OVC015
      TEMPO 3009/3012 4SM -SHRA BR BKN004
     FM301200 22005KT 4SM -SHRA BR BKN004 OVC008
     FM301800 VRB04KT P6SM OVC015=



000
FTUS44 KSHV 292340
TAFSHV
TAF
KSHV 292340Z 3000/3024 22012G20KT P6SM FEW035
     FM300600 19009KT P6SM OVC025
     FM300900 20005KT 5SM BR BKN008 OVC015
      TEMPO 3009/3012 4SM -SHRA BR BKN004
     FM301200 22005KT 4SM -SHRA BR BKN004 OVC008
     FM301800 VRB04KT P6SM OVC015=



000
FTUS44 KSHV 292340
TAFTYR
TAF
KTYR 292340Z 3000/3024 18021G28KT P6SM SKC
     FM300600 19008KT P6SM OVC025
     FM300900 18007KT 5SM BR BKN008 OVC015
      TEMPO 3009/3012 4SM -SHRA BR BKN004
     FM301200 18006KT 4SM -SHRA BR BKN004 OVC008
     FM302100 17006KT P6SM OVC015=



000
FTUS44 KSHV 292340
TAFTXK
TAF
KTXK 292340Z 3000/3024 20010G20KT P6SM SCT060
     FM300600 20005KT 5SM -SHRA VCTS OVC025CB
     FM300900 22004KT 5SM -SHRA BR BKN003 OVC006
     FM301500 22005KT 4SM BR VCSH BKN005 OVC010
     FM302100 07004KT P6SM OVC015=



000
FTUS44 KSHV 292340
TAFMLU
TAF
KMLU 292340Z 3000/3024 21010KT P6SM SKC
     FM300600 21007KT P6SM FEW150
     FM300900 24005KT 5SM BR OVC015
      TEMPO 3009/3012 4SM -SHRA BR OVC015
     FM301200 25005KT 4SM -SHRA BR OVC007
     FM302100 32005KT P6SM OVC025=



000
FTUS44 KSHV 292340
TAFLFK
TAF
KLFK 292340Z 3000/3024 18016G22KT P6SM FEW050
     FM300600 17005KT P6SM OVC015
     FM300900 16002KT 2SM BR OVC004
     FM301500 16003KT 5SM BR OVC007
     FM302100 19004KT P6SM OVC015=



000
FTUS44 KSHV 292340
TAFGGG
TAF
KGGG 292340Z 3000/3024 20014G22KT P6SM SKC
     FM300600 19007KT P6SM OVC025
     FM300900 18006KT 5SM BR BKN008 OVC015
      TEMPO 3009/3012 4SM -SHRA BR BKN004
     FM301200 18005KT 4SM -SHRA BR BKN004 OVC008
     FM302100 18006KT P6SM OVC015=



000
FTUS44 KSHV 292340
TAFELD
TAF
KELD 292340Z 3000/3024 20016G21KT P6SM SKC
     FM300600 20005KT 5SM -SHRA VCTS OVC025CB
     FM300900 22004KT 5SM -SHRA BR BKN003 OVC006
     FM301500 22005KT 4SM BR VCSH BKN005 OVC010=



000
FTUS44 KSHV 291746
TAFGGG
TAF
KGGG 291746Z 2918/3018 20013G24KT P6SM SKC
     FM300000 19008KT P6SM SCT150
     FM300600 19007KT P6SM OVC025
     FM300900 18006KT 5SM BR BKN008 OVC015
      TEMPO 3009/3012 4SM -SHRA BR BKN004
     FM301200 18005KT 4SM -SHRA BR BKN004 OVC008=



000
FTUS44 KSHV 291746
TAFSHV
TAF
KSHV 291746Z 2918/3018 20014G20KT P6SM FEW040
     FM300000 19008KT P6SM SCT150
     FM300600 19006KT P6SM OVC025
     FM300900 20004KT 5SM BR BKN008 OVC015
      TEMPO 3009/3012 4SM -SHRA BR BKN004
     FM301200 22005KT 4SM -SHRA BR BKN004 OVC008=



000
FTUS44 KSHV 291746
TAFLFK
TAF
KLFK 291746Z 2918/3018 19014G20KT P6SM SKC
     FM300000 17008KT P6SM SKC
     FM300600 17005KT P6SM OVC015
     FM300900 16002KT 2SM BR OVC004
     FM301500 16003KT 5SM BR OVC007=



000
FTUS44 KSHV 291746
TAFELD
TAF
KELD 291746Z 2918/3018 18012G18KT P6SM SKC
     FM300000 19006KT P6SM SCT150
     FM300600 20005KT 5SM -SHRA VCTS OVC025CB
     FM300900 22004KT 5SM -SHRA BR BKN003 OVC006
     FM301500 22005KT 4SM BR VCSH BKN005 OVC010=



000
FTUS44 KSHV 291746
TAFMLU
TAF
KMLU 291746Z 2918/3018 19012G18KT P6SM SCT030
     FM300000 20008KT P6SM SKC
     FM300600 21007KT P6SM FEW150
     FM300900 24005KT 5SM BR OVC015
      TEMPO 3009/3012 4SM -SHRA BR OVC015
     FM301200 30005KT 4SM -SHRA BR OVC007=



000
FTUS44 KSHV 291746
TAFTXK
TAF
KTXK 291746Z 2918/3018 19012G18KT P6SM SKC
     FM300000 19006KT P6SM SCT150
     FM300600 20005KT 5SM -SHRA VCTS OVC025CB
     FM300900 22004KT 5SM -SHRA BR BKN003 OVC006
     FM301500 22005KT 4SM BR VCSH BKN005 OVC010=



000
FTUS44 KSHV 291746
TAFTYR
TAF
KTYR 291746Z 2918/3018 19015G21KT P6SM SKC
     FM300000 19009KT P6SM SCT150
     FM300600 19008KT P6SM OVC025
     FM300900 18007KT 5SM BR BKN008 OVC015
      TEMPO 3009/3012 4SM -SHRA BR BKN004
     FM301200 18006KT 4SM -SHRA BR BKN004 OVC008=



000
FTUS44 KSHV 291746
TAFMLU
TAF
KMLU 291746Z 2918/3018 19012G18KT P6SM SCT030
     FM300000 20008KT P6SM SKC
     FM300600 21007KT P6SM FEW150
     FM300900 24005KT 5SM BR OVC015
      TEMPO 3009/3012 4SM -SHRA BR OVC015
     FM301200 30005KT 4SM -SHRA BR OVC007=



000
FTUS44 KSHV 291746
TAFLFK
TAF
KLFK 291746Z 2918/3018 19014G20KT P6SM SKC
     FM300000 17008KT P6SM SKC
     FM300600 17005KT P6SM OVC015
     FM300900 16002KT 2SM BR OVC004
     FM301500 16003KT 5SM BR OVC007=



000
FTUS44 KSHV 291746
TAFGGG
TAF
KGGG 291746Z 2918/3018 20013G24KT P6SM SKC
     FM300000 19008KT P6SM SCT150
     FM300600 19007KT P6SM OVC025
     FM300900 18006KT 5SM BR BKN008 OVC015
      TEMPO 3009/3012 4SM -SHRA BR BKN004
     FM301200 18005KT 4SM -SHRA BR BKN004 OVC008=



000
FTUS44 KSHV 291746
TAFSHV
TAF
KSHV 291746Z 2918/3018 20014G20KT P6SM FEW040
     FM300000 19008KT P6SM SCT150
     FM300600 19006KT P6SM OVC025
     FM300900 20004KT 5SM BR BKN008 OVC015
      TEMPO 3009/3012 4SM -SHRA BR BKN004
     FM301200 22005KT 4SM -SHRA BR BKN004 OVC008=



000
FTUS44 KSHV 291746
TAFTYR
TAF
KTYR 291746Z 2918/3018 19015G21KT P6SM SKC
     FM300000 19009KT P6SM SCT150
     FM300600 19008KT P6SM OVC025
     FM300900 18007KT 5SM BR BKN008 OVC015
      TEMPO 3009/3012 4SM -SHRA BR BKN004
     FM301200 18006KT 4SM -SHRA BR BKN004 OVC008=



000
FTUS44 KSHV 291746
TAFTXK
TAF
KTXK 291746Z 2918/3018 19012G18KT P6SM SKC
     FM300000 19006KT P6SM SCT150
     FM300600 20005KT 5SM -SHRA VCTS OVC025CB
     FM300900 22004KT 5SM -SHRA BR BKN003 OVC006
     FM301500 22005KT 4SM BR VCSH BKN005 OVC010=



000
FTUS44 KSHV 291746
TAFELD
TAF
KELD 291746Z 2918/3018 18012G18KT P6SM SKC
     FM300000 19006KT P6SM SCT150
     FM300600 20005KT 5SM -SHRA VCTS OVC025CB
     FM300900 22004KT 5SM -SHRA BR BKN003 OVC006
     FM301500 22005KT 4SM BR VCSH BKN005 OVC010=



000
FTUS44 KSHV 291629 AAC
TAFGGG
TAF AMD
KGGG 291629Z 2916/3012 19012G18KT P6SM SKC
     FM291800 20015G24KT P6SM FEW030
     FM300000 17006KT P6SM SKC
      TEMPO 3008/3012 BKN015=



000
FTUS44 KSHV 291629 AAC
TAFGGG
TAF AMD
KGGG 291629Z 2916/3012 19012G18KT P6SM SKC
     FM291800 20015G24KT P6SM FEW030
     FM300000 17006KT P6SM SKC
      TEMPO 3008/3012 BKN015=



000
FTUS44 KSHV 291627 AAB
TAFELD
TAF AMD
KELD 291627Z 2916/3012 18012G19KT P6SM SCT015
     FM291800 19013G20KT P6SM FEW030
     FM300000 21005KT P6SM SKC
     FM300600 VRB04KT P6SM VCTS BKN030CB
      TEMPO 3009/3012 3SM TSRA BR OVC015CB=



000
FTUS44 KSHV 291627 AAB
TAFELD
TAF AMD
KELD 291627Z 2916/3012 18012G19KT P6SM SCT015
     FM291800 19013G20KT P6SM FEW030
     FM300000 21005KT P6SM SKC
     FM300600 VRB04KT P6SM VCTS BKN030CB
      TEMPO 3009/3012 3SM TSRA BR OVC015CB=



000
FTUS44 KSHV 291626 AAB
TAFLFK
TAF AMD
KLFK 291626Z 2916/3012 19012G17KT P6SM FEW025
     FM291800 19014G20KT P6SM SCT030
     FM300000 17006KT P6SM SKC
     FM300600 16004KT P6SM BKN020
      TEMPO 3009/3012 3SM BR OVC010=



000
FTUS44 KSHV 291626 AAB
TAFLFK
TAF AMD
KLFK 291626Z 2916/3012 19012G17KT P6SM FEW025
     FM291800 19014G20KT P6SM SCT030
     FM300000 17006KT P6SM SKC
     FM300600 16004KT P6SM BKN020
      TEMPO 3009/3012 3SM BR OVC010=



000
FTUS44 KSHV 291625 AAB
TAFTXK
TAF AMD
KTXK 291625Z 2916/3012 18010KT P6SM SKC
     FM291800 20012G18KT P6SM FEW030
     FM300000 21005KT P6SM SKC
      TEMPO 3008/3012 4SM TSRA BR OVC015CB=



000
FTUS44 KSHV 291625 AAB
TAFTXK
TAF AMD
KTXK 291625Z 2916/3012 18010KT P6SM SKC
     FM291800 20012G18KT P6SM FEW030
     FM300000 21005KT P6SM SKC
      TEMPO 3008/3012 4SM TSRA BR OVC015CB=



000
FTUS44 KSHV 291624 AAB
TAFMLU
TAF AMD
KMLU 291624Z 2916/3012 18008KT P6SM FEW015 SCT025
     FM291700 19013G19KT P6SM SCT030
     FM300000 20008KT P6SM SKC
      TEMPO 3008/3012 4SM TSRA BR OVC010CB=



000
FTUS44 KSHV 291624 AAB
TAFMLU
TAF AMD
KMLU 291624Z 2916/3012 18008KT P6SM FEW015 SCT025
     FM291700 19013G19KT P6SM SCT030
     FM300000 20008KT P6SM SKC
      TEMPO 3008/3012 4SM TSRA BR OVC010CB=



000
FTUS44 KSHV 291622 AAB
TAFSHV
TAF AMD
KSHV 291622Z 2916/3012 19012G19KT P6SM FEW015 SCT025
     FM291700 20014G22KT P6SM FEW030
     FM300000 19007KT P6SM SKC
      TEMPO 3008/3012 BKN015=



000
FTUS44 KSHV 291512 AAA
TAFTYR
TAF AMD
KTYR 291512Z 2915/3012 20013G20KT P6SM SKC
     FM291800 19015G25KT P6SM SKC
     FM300000 17008KT P6SM SKC
      TEMPO 3008/3012 BKN020=



000
FTUS44 KSHV 291512 AAA
TAFTYR
TAF AMD
KTYR 291512Z 2915/3012 20013G20KT P6SM SKC
     FM291800 19015G25KT P6SM SKC
     FM300000 17008KT P6SM SKC
      TEMPO 3008/3012 BKN020=



000
FTUS44 KSHV 291430 AAA
TAFLFK
TAF AMD
KLFK 291430Z 2915/3012 17008KT P6SM OVC012
     FM291600 18010G15KT P6SM BKN015
      TEMPO 2917/2918 BKN020
     FM291800 19014G20KT P6SM SCT030
     FM300000 17006KT P6SM SKC
     FM300600 16004KT P6SM BKN020
      TEMPO 3009/3012 3SM BR OVC010=



000
FTUS44 KSHV 291430 AAA
TAFLFK
TAF AMD
KLFK 291430Z 2915/3012 17008KT P6SM OVC012
     FM291600 18010G15KT P6SM BKN015
      TEMPO 2917/2918 BKN020
     FM291800 19014G20KT P6SM SCT030
     FM300000 17006KT P6SM SKC
     FM300600 16004KT P6SM BKN020
      TEMPO 3009/3012 3SM BR OVC010=



000
FTUS44 KSHV 291428 AAB
TAFGGG
TAF AMD
KGGG 291428Z 2914/3012 18009KT P6SM SCT004 BKN008
      TEMPO 2915/2916 BKN010
     FM291600 19014G22KT P6SM SCT020
     FM291800 20015G24KT P6SM SKC
     FM300000 17006KT P6SM SKC
      TEMPO 3008/3012 BKN015=



000
FTUS44 KSHV 291428 AAB
TAFGGG
TAF AMD
KGGG 291428Z 2914/3012 18009KT P6SM SCT004 BKN008
      TEMPO 2915/2916 BKN010
     FM291600 19014G22KT P6SM SCT020
     FM291800 20015G24KT P6SM SKC
     FM300000 17006KT P6SM SKC
      TEMPO 3008/3012 BKN015=



000
FTUS44 KSHV 291423 AAA
TAFELD
TAF AMD
KELD 291423Z 2914/3012 14009KT P6SM OVC010
     FM291600 17010G15KT P6SM BKN015
      TEMPO 2917/2918 BKN025
     FM291800 19012G18KT P6SM SCT030
     FM300000 21005KT P6SM SKC
     FM300600 VRB04KT P6SM VCTS BKN030CB
      TEMPO 3009/3012 3SM TSRA BR OVC015CB=



000
FTUS44 KSHV 291420 AAA
TAFTXK
TAF AMD
KTXK 291420Z 2914/3012 14008KT P6SM OVC008
     FM291600 17010G15KT P6SM BKN015
      TEMPO 2917/2918 SCT025
     FM291800 20012G18KT P6SM SCT030
     FM300000 21005KT P6SM SKC
      TEMPO 3008/3012 4SM TSRA BR OVC015CB=



000
FTUS44 KSHV 291420 AAA
TAFTXK
TAF AMD
KTXK 291420Z 2914/3012 14008KT P6SM OVC008
     FM291600 17010G15KT P6SM BKN015
      TEMPO 2917/2918 SCT025
     FM291800 20012G18KT P6SM SCT030
     FM300000 21005KT P6SM SKC
      TEMPO 3008/3012 4SM TSRA BR OVC015CB=



000
FTUS44 KSHV 291417 AAA
TAFMLU
TAF AMD
KMLU 291417Z 2914/3012 16008KT P6SM OVC012
     FM291600 18010G15KT P6SM BKN015
      TEMPO 2917/2918 BKN025
     FM291800 20013G19KT P6SM SCT030
     FM300000 20008KT P6SM SKC
      TEMPO 3008/3012 4SM TSRA BR OVC010CB=



000
FTUS44 KSHV 291417 AAA
TAFMLU
TAF AMD
KMLU 291417Z 2914/3012 16008KT P6SM OVC012
     FM291600 18010G15KT P6SM BKN015
      TEMPO 2917/2918 BKN025
     FM291800 20013G19KT P6SM SCT030
     FM300000 20008KT P6SM SKC
      TEMPO 3008/3012 4SM TSRA BR OVC010CB=



000
FTUS44 KSHV 291410 AAB
TAFSHV
TAF AMD
KSHV 291410Z 2914/3012 14008KT P6SM OVC008
     FM291500 19010G15KT P6SM BKN015
      TEMPO 2916/2917 17008KT SCT025
     FM291700 20014G20KT P6SM SCT030
     FM300000 19007KT P6SM SKC
      TEMPO 3008/3012 BKN015=



000
FTUS44 KSHV 291246 AAA
TAFGGG
TAF AMD
KGGG 291246Z 2913/3012 12006KT P6SM SKC
      TEMPO 2913/2915 BKN005
     FM291700 19014G22KT P6SM SKC
     FM300000 17006KT P6SM SKC
      TEMPO 3008/3012 BKN015=



000
FTUS44 KSHV 291246 AAA
TAFGGG
TAF AMD
KGGG 291246Z 2913/3012 12006KT P6SM SKC
      TEMPO 2913/2915 BKN005
     FM291700 19014G22KT P6SM SKC
     FM300000 17006KT P6SM SKC
      TEMPO 3008/3012 BKN015=



000
FTUS44 KSHV 291123
TAFTYR
TAF
KTYR 291123Z 2912/3012 13007KT P6SM SKC
     FM291700 19015G25KT P6SM SKC
     FM300000 17008KT P6SM SKC
      TEMPO 3008/3012 BKN020=



000
FTUS44 KSHV 291123
TAFLFK
TAF
KLFK 291123Z 2912/3012 17008KT P6SM SCT010 BKN020
      TEMPO 2912/2914 OVC008
     FM291600 19014G22KT P6SM SCT030
     FM300000 17006KT P6SM SKC
     FM300600 16004KT P6SM BKN020
      TEMPO 3009/3012 3SM BR OVC010=



000
FTUS44 KSHV 291123
TAFGGG
TAF
KGGG 291123Z 2912/3012 12006KT P6SM SKC
     FM291700 19014G22KT P6SM SKC
     FM300000 17006KT P6SM SKC
      TEMPO 3008/3012 BKN015=



000
FTUS44 KSHV 291123
TAFMLU
TAF
KMLU 291123Z 2912/3012 13007KT P6SM SCT025 BKN040
      TEMPO 2912/2914 OVC020
     FM291500 21012G20KT P6SM SCT040
      TEMPO 2915/2917 15006KT BKN030
     FM300000 20008KT P6SM SKC
      TEMPO 3008/3012 4SM TSRA BR OVC010CB=



000
FTUS44 KSHV 291123
TAFSHV
TAF
KSHV 291123Z 2912/3012 14006KT P6SM SCT015
      TEMPO 2912/2914 BKN010
     FM291500 20012G20KT P6SM SCT050
      TEMPO 2915/2918 17008KT SCT025 BKN050
     FM300000 19007KT P6SM SKC
      TEMPO 3008/3012 BKN015=



000
FTUS44 KSHV 291123
TAFGGG
TAF
KGGG 291123Z 2912/3012 12006KT P6SM SKC
     FM291700 19014G22KT P6SM SKC
     FM300000 17006KT P6SM SKC
      TEMPO 3008/3012 BKN015=



000
FTUS44 KSHV 291123
TAFELD
TAF
KELD 291123Z 2912/3012 12008KT P6SM SCT020
      TEMPO 2912/2914 OVC015
     FM291700 18012G18KT P6SM SCT040
     FM300000 21005KT P6SM SKC
     FM300600 VRB04KT P6SM VCTS BKN030CB
      TEMPO 3009/3012 3SM TSRA BR OVC015CB=



000
FTUS44 KSHV 291123
TAFTYR
TAF
KTYR 291123Z 2912/3012 13007KT P6SM SKC
     FM291700 19015G25KT P6SM SKC
     FM300000 17008KT P6SM SKC
      TEMPO 3008/3012 BKN020=



000
FTUS44 KSHV 291123
TAFSHV
TAF
KSHV 291123Z 2912/3012 14006KT P6SM SCT015
      TEMPO 2912/2914 BKN010
     FM291500 20012G20KT P6SM SCT050
      TEMPO 2915/2918 17008KT SCT025 BKN050
     FM300000 19007KT P6SM SKC
      TEMPO 3008/3012 BKN015=



000
FTUS44 KSHV 291123
TAFLFK
TAF
KLFK 291123Z 2912/3012 17008KT P6SM SCT010 BKN020
      TEMPO 2912/2914 OVC008
     FM291600 19014G22KT P6SM SCT030
     FM300000 17006KT P6SM SKC
     FM300600 16004KT P6SM BKN020
      TEMPO 3009/3012 3SM BR OVC010=



000
FTUS44 KSHV 291123
TAFMLU
TAF
KMLU 291123Z 2912/3012 13007KT P6SM SCT025 BKN040
      TEMPO 2912/2914 OVC020
     FM291500 21012G20KT P6SM SCT040
      TEMPO 2915/2917 15006KT BKN030
     FM300000 20008KT P6SM SKC
      TEMPO 3008/3012 4SM TSRA BR OVC010CB=



000
FTUS44 KSHV 291123
TAFTXK
TAF
KTXK 291123Z 2912/3012 09004KT P6SM SKC
     FM291600 20012KT P6SM SCT040
     FM300000 21005KT P6SM SKC
      TEMPO 3008/3012 4SM TSRA BR OVC015CB=



000
FTUS44 KSHV 291123
TAFTXK
TAF
KTXK 291123Z 2912/3012 09004KT P6SM SKC
     FM291600 20012KT P6SM SCT040
     FM300000 21005KT P6SM SKC
      TEMPO 3008/3012 4SM TSRA BR OVC015CB=



000
FTUS44 KSHV 291123
TAFELD
TAF
KELD 291123Z 2912/3012 12008KT P6SM SCT020
      TEMPO 2912/2914 OVC015
     FM291700 18012G18KT P6SM SCT040
     FM300000 21005KT P6SM SKC
     FM300600 VRB04KT P6SM VCTS BKN030CB
      TEMPO 3009/3012 3SM TSRA BR OVC015CB=



000
FTUS44 KSHV 291102 AAC
TAFLFK
TAF AMD
KLFK 291102Z 2911/3006 18008KT P6SM BKN010
      TEMPO 2911/2913 4SM BR OVC005
     FM291400 18009KT P6SM OVC025
      TEMPO 2914/2916 OVC012
     FM291800 19014G23KT P6SM SCT030
     FM300000 17007KT P6SM SKC=



000
FTUS44 KSHV 291102 AAC
TAFLFK
TAF AMD
KLFK 291102Z 2911/3006 18008KT P6SM BKN010
      TEMPO 2911/2913 4SM BR OVC005
     FM291400 18009KT P6SM OVC025
      TEMPO 2914/2916 OVC012
     FM291800 19014G23KT P6SM SCT030
     FM300000 17007KT P6SM SKC=



000
FTUS44 KSHV 291101 AAC
TAFSHV
TAF AMD
KSHV 291101Z 2911/3006 13007KT P6SM SKC
      TEMPO 2911/2915 BKN010
     FM291500 17008KT P6SM BKN025 OVC050
     FM291800 20014G20KT P6SM FEW050 BKN250
     FM300000 19007KT P6SM BKN250=



000
FTUS44 KSHV 291101 AAC
TAFSHV
TAF AMD
KSHV 291101Z 2911/3006 13007KT P6SM SKC
      TEMPO 2911/2915 BKN010
     FM291500 17008KT P6SM BKN025 OVC050
     FM291800 20014G20KT P6SM FEW050 BKN250
     FM300000 19007KT P6SM BKN250=



000
FTUS44 KSHV 291005 AAB
TAFLFK
TAF AMD
KLFK 291005Z 2910/3006 16006KT P6SM OVC002
      TEMPO 2910/2913 2SM BR
     FM291400 18009KT P6SM OVC025
      TEMPO 2914/2916 OVC012
     FM291800 19014G23KT P6SM SCT030
     FM300000 17007KT P6SM SKC=



000
FTUS44 KSHV 290910 AAA
TAFLFK
TAF AMD
KLFK 290910Z 2909/3006 16006KT 3SM BR SCT005
      TEMPO 2909/2913 1/2SM FG VV001
     FM291400 18009KT P6SM OVC025
     FM291800 19014G23KT P6SM SCT030
     FM300000 17007KT P6SM SKC=



000
FTUS44 KSHV 290809 AAA
TAFMLU
TAF AMD
KMLU 290809Z 2908/3006 10005KT P6SM BKN025
      TEMPO 2908/2912 OVC015
     FM291500 21012G20KT P6SM SCT035 BKN250
     FM300000 20008KT P6SM SKC=



000
FTUS44 KSHV 290809 AAA
TAFMLU
TAF AMD
KMLU 290809Z 2908/3006 10005KT P6SM BKN025
      TEMPO 2908/2912 OVC015
     FM291500 21012G20KT P6SM SCT035 BKN250
     FM300000 20008KT P6SM SKC=



000
FTUS44 KSHV 290526
TAFELD
TAF
KELD 290526Z 2906/3006 07008KT P6SM SKC
      TEMPO 2910/2914 5SM BR OVC015
     FM291400 14006KT P6SM SCT015 BKN035
     FM291800 19012G18KT P6SM SCT050
     FM300000 19005KT P6SM SKC=



000
FTUS44 KSHV 290526
TAFMLU
TAF
KMLU 290526Z 2906/3006 06008KT P6SM SKC
      TEMPO 2910/2914 OVC025
     FM291500 17007KT P6SM OVC025
     FM291800 21015KT P6SM SCT035 BKN250
     FM300000 20008KT P6SM SKC=



000
FTUS44 KSHV 290526
TAFTXK
TAF
KTXK 290526Z 2906/3006 09009G17KT P6SM SKC
     FM291200 13004KT P6SM SCT010
     FM291500 17008KT P6SM SCT015
     FM291800 22011G18KT P6SM BKN040 BKN250
     FM300000 20005KT P6SM OVC250=



000
FTUS44 KSHV 290526
TAFGGG
TAF
KGGG 290526Z 2906/3006 00000KT P6SM SKC
     FM291200 16005KT 2SM BR SCT007 BKN015
     FM291500 19013G22KT P6SM BKN020 OVC050
     FM300000 17005KT P6SM SKC=



000
FTUS44 KSHV 290526
TAFTYR
TAF
KTYR 290526Z 2906/3006 15007KT P6SM SKC
     FM291200 16007KT P6SM SCT015
     FM291500 19015G25KT P6SM SCT025 BKN100
     FM300000 17008KT P6SM SKC=



000
FTUS44 KSHV 290526
TAFLFK
TAF
KLFK 290526Z 2906/3006 16006KT P6SM SKC
     FM290900 14003KT 4SM BR SCT015 BKN250
      TEMPO 2910/2914 1SM BR OVC010
     FM291500 18009KT P6SM OVC025
     FM291800 19014G23KT P6SM SCT030
     FM300000 17007KT P6SM SKC=



000
FTUS44 KSHV 290526
TAFSHV
TAF
KSHV 290526Z 2906/3006 09010KT P6SM SKC
      TEMPO 2911/2915 BKN015
     FM291500 17008KT P6SM BKN025 OVC050
     FM291800 20014G20KT P6SM FEW050 BKN250
     FM300000 19007KT P6SM BKN250=



000
FTUS44 KSHV 290526
TAFELD
TAF
KELD 290526Z 2906/3006 07008KT P6SM SKC
      TEMPO 2910/2914 5SM BR OVC015
     FM291400 14006KT P6SM SCT015 BKN035
     FM291800 19012G18KT P6SM SCT050
     FM300000 19005KT P6SM SKC=



000
FTUS44 KSHV 290526
TAFTXK
TAF
KTXK 290526Z 2906/3006 09009G17KT P6SM SKC
     FM291200 13004KT P6SM SCT010
     FM291500 17008KT P6SM SCT015
     FM291800 22011G18KT P6SM BKN040 BKN250
     FM300000 20005KT P6SM OVC250=



000
FTUS44 KSHV 290526
TAFGGG
TAF
KGGG 290526Z 2906/3006 00000KT P6SM SKC
     FM291200 16005KT 2SM BR SCT007 BKN015
     FM291500 19013G22KT P6SM BKN020 OVC050
     FM300000 17005KT P6SM SKC=



000
FTUS44 KSHV 290526
TAFMLU
TAF
KMLU 290526Z 2906/3006 06008KT P6SM SKC
      TEMPO 2910/2914 OVC025
     FM291500 17007KT P6SM OVC025
     FM291800 21015KT P6SM SCT035 BKN250
     FM300000 20008KT P6SM SKC=



000
FTUS44 KSHV 290526
TAFSHV
TAF
KSHV 290526Z 2906/3006 09010KT P6SM SKC
      TEMPO 2911/2915 BKN015
     FM291500 17008KT P6SM BKN025 OVC050
     FM291800 20014G20KT P6SM FEW050 BKN250
     FM300000 19007KT P6SM BKN250=



000
FTUS44 KSHV 290526
TAFLFK
TAF
KLFK 290526Z 2906/3006 16006KT P6SM SKC
     FM290900 14003KT 4SM BR SCT015 BKN250
      TEMPO 2910/2914 1SM BR OVC010
     FM291500 18009KT P6SM OVC025
     FM291800 19014G23KT P6SM SCT030
     FM300000 17007KT P6SM SKC=



000
FTUS44 KSHV 290526
TAFTYR
TAF
KTYR 290526Z 2906/3006 15007KT P6SM SKC
     FM291200 16007KT P6SM SCT015
     FM291500 19015G25KT P6SM SCT025 BKN100
     FM300000 17008KT P6SM SKC=



000
FTUS44 KSHV 290444 AAA
TAFELD
TAF AMD
KELD 290444Z 2905/2924 07008KT P6SM SKC
      TEMPO 2910/2914 3SM BR OVC015
     FM291400 14006KT P6SM SCT015 BKN035
     FM291800 20012G18KT P6SM SCT050=



000
FTUS44 KSHV 282340
TAFLFK
TAF
KLFK 282340Z 2900/2924 21006KT P6SM SKC
     FM290900 14003KT 2SM BR SCT015 BKN250
      TEMPO 2910/2914 1/4SM FG OVC010
     FM291500 18009KT P6SM OVC025
     FM291800 19014G20KT P6SM SCT030=



000
FTUS44 KSHV 282340
TAFELD
TAF
KELD 282340Z 2900/2924 08011KT P6SM SKC
     FM290400 07005KT P6SM BKN012
      TEMPO 2910/2914 3SM BR OVC005
     FM291400 14006KT P6SM SCT015 BKN035
     FM291800 20012G18KT P6SM SCT050=



000
FTUS44 KSHV 282340
TAFMLU
TAF
KMLU 282340Z 2900/2924 10007KT P6SM SKC
     FM290900 10006KT P6SM BKN100
     FM291200 14006KT P6SM OVC050
     FM291500 17007KT P6SM OVC025
     FM291800 21015KT P6SM SCT035 BKN250=



000
FTUS44 KSHV 282340
TAFSHV
TAF
KSHV 282340Z 2900/2924 16006KT P6SM SKC
     FM291200 13003KT 4SM BR BKN015
     FM291500 17009KT P6SM BKN025 OVC050
     FM291800 20014G20KT P6SM FEW050 BKN250=



000
FTUS44 KSHV 282340
TAFTXK
TAF
KTXK 282340Z 2900/2924 10008KT P6SM SKC
     FM291200 13004KT P6SM SCT010
     FM291500 17008KT P6SM SCT015
     FM291800 22011G18KT P6SM BKN040 BKN250=



000
FTUS44 KSHV 282340
TAFTYR
TAF
KTYR 282340Z 2900/2924 19009KT P6SM SKC
     FM291200 16007KT P6SM SCT015
     FM291500 19014G21KT P6SM SCT025 BKN100=



000
FTUS44 KSHV 282340
TAFMLU
TAF
KMLU 282340Z 2900/2924 10007KT P6SM SKC
     FM290900 10006KT P6SM BKN100
     FM291200 14006KT P6SM OVC050
     FM291500 17007KT P6SM OVC025
     FM291800 21015KT P6SM SCT035 BKN250=



000
FTUS44 KSHV 282340
TAFGGG
TAF
KGGG 282340Z 2900/2924 18009KT P6SM SKC
     FM291200 16005KT 2SM BR SCT007 BKN015
     FM291500 19011G20KT P6SM BKN020 OVC050=



000
FTUS44 KSHV 282340
TAFELD
TAF
KELD 282340Z 2900/2924 08011KT P6SM SKC
     FM290400 07005KT P6SM BKN012
      TEMPO 2910/2914 3SM BR OVC005
     FM291400 14006KT P6SM SCT015 BKN035
     FM291800 20012G18KT P6SM SCT050=



000
FTUS44 KSHV 282340
TAFSHV
TAF
KSHV 282340Z 2900/2924 16006KT P6SM SKC
     FM291200 13003KT 4SM BR BKN015
     FM291500 17009KT P6SM BKN025 OVC050
     FM291800 20014G20KT P6SM FEW050 BKN250=



000
FTUS44 KSHV 282340
TAFLFK
TAF
KLFK 282340Z 2900/2924 21006KT P6SM SKC
     FM290900 14003KT 2SM BR SCT015 BKN250
      TEMPO 2910/2914 1/4SM FG OVC010
     FM291500 18009KT P6SM OVC025
     FM291800 19014G20KT P6SM SCT030=



000
FTUS44 KSHV 282340
TAFTXK
TAF
KTXK 282340Z 2900/2924 10008KT P6SM SKC
     FM291200 13004KT P6SM SCT010
     FM291500 17008KT P6SM SCT015
     FM291800 22011G18KT P6SM BKN040 BKN250=



000
FTUS44 KSHV 282340
TAFTYR
TAF
KTYR 282340Z 2900/2924 19009KT P6SM SKC
     FM291200 16007KT P6SM SCT015
     FM291500 19014G21KT P6SM SCT025 BKN100=



000
FTUS44 KSHV 282340
TAFGGG
TAF
KGGG 282340Z 2900/2924 18009KT P6SM SKC
     FM291200 16005KT 2SM BR SCT007 BKN015
     FM291500 19011G20KT P6SM BKN020 OVC050=



000
FTUS44 KSHV 281757
TAFMLU
TAF
KMLU 281757Z 2818/2918 VRB05KT P6SM SCT110 BKN250
     FM290100 09008KT P6SM SCT250
     FM290900 10006KT P6SM BKN100
     FM291200 14006KT P6SM OVC050=



000
FTUS44 KSHV 281757
TAFLFK
TAF
KLFK 281757Z 2818/2918 16010KT P6SM FEW250
     FM290900 14003KT 2SM BR SCT015 BKN250
      TEMPO 2910/2914 1/2SM FG OVC010
     FM291500 18009KT P6SM OVC025=



000
FTUS44 KSHV 281757
TAFELD
TAF
KELD 281757Z 2818/2918 15008KT P6SM FEW110 BKN250
     FM282300 10008KT P6SM SCT250
     FM290400 07005KT P6SM BKN012
      TEMPO 2908/2912 3SM BR OVC005
     FM291200 14006KT P6SM OVC050=



000
FTUS44 KSHV 281757
TAFSHV
TAF
KSHV 281757Z 2818/2918 16009KT P6SM SCT120 BKN250
     FM290000 09004KT P6SM SCT250
     FM291200 13003KT 4SM BR BKN015
     FM291500 18009KT P6SM BKN025 OVC050=



000
FTUS44 KSHV 281757
TAFTXK
TAF
KTXK 281757Z 2818/2918 16007KT P6SM FEW110 BKN250
     FM290000 09005KT P6SM FEW250
     FM291200 12004KT P6SM SCT010
     FM291500 17008KT P6SM SCT015=



000
FTUS44 KSHV 281757
TAFGGG
TAF
KGGG 281757Z 2818/2918 15006KT P6SM SCT250
     FM290000 15006KT P6SM SKC
     FM291200 16005KT 2SM BR SCT007 BKN015
     FM291500 19011KT P6SM BKN020 OVC050=



000
FTUS44 KSHV 281757
TAFTYR
TAF
KTYR 281757Z 2818/2918 17012KT P6SM FEW250
     FM290000 15006KT P6SM SKC
     FM291200 16007KT P6SM SCT015
     FM291500 19014KT P6SM SCT025 BKN100=



000
FTUS44 KSHV 281757
TAFLFK
TAF
KLFK 281757Z 2818/2918 16010KT P6SM FEW250
     FM290900 14003KT 2SM BR SCT015 BKN250
      TEMPO 2910/2914 1/2SM FG OVC010
     FM291500 18009KT P6SM OVC025=



000
FTUS44 KSHV 281757
TAFELD
TAF
KELD 281757Z 2818/2918 15008KT P6SM FEW110 BKN250
     FM282300 10008KT P6SM SCT250
     FM290400 07005KT P6SM BKN012
      TEMPO 2908/2912 3SM BR OVC005
     FM291200 14006KT P6SM OVC050=



000
FTUS44 KSHV 281757
TAFTYR
TAF
KTYR 281757Z 2818/2918 17012KT P6SM FEW250
     FM290000 15006KT P6SM SKC
     FM291200 16007KT P6SM SCT015
     FM291500 19014KT P6SM SCT025 BKN100=



000
FTUS44 KSHV 281757
TAFTXK
TAF
KTXK 281757Z 2818/2918 16007KT P6SM FEW110 BKN250
     FM290000 09005KT P6SM FEW250
     FM291200 12004KT P6SM SCT010
     FM291500 17008KT P6SM SCT015=



000
FTUS44 KSHV 281757
TAFMLU
TAF
KMLU 281757Z 2818/2918 VRB05KT P6SM SCT110 BKN250
     FM290100 09008KT P6SM SCT250
     FM290900 10006KT P6SM BKN100
     FM291200 14006KT P6SM OVC050=



000
FTUS44 KSHV 281757
TAFSHV
TAF
KSHV 281757Z 2818/2918 16009KT P6SM SCT120 BKN250
     FM290000 09004KT P6SM SCT250
     FM291200 13003KT 4SM BR BKN015
     FM291500 18009KT P6SM BKN025 OVC050=



000
FTUS44 KSHV 281757
TAFGGG
TAF
KGGG 281757Z 2818/2918 15006KT P6SM SCT250
     FM290000 15006KT P6SM SKC
     FM291200 16005KT 2SM BR SCT007 BKN015
     FM291500 19011KT P6SM BKN020 OVC050=



000
FTUS44 KSHV 281126
TAFTXK
TAF
KTXK 281126Z 2812/2912 16005KT P6SM SKC
     FM281400 15006KT P6SM BKN120
     FM282100 11005KT P6SM SCT250
     FM290500 09007KT P6SM BKN012
      TEMPO 2908/2912 4SM BR OVC005=



000
FTUS44 KSHV 281126
TAFLFK
TAF
KLFK 281126Z 2812/2912 16004KT P6SM SKC
     FM281600 20012KT P6SM SCT250
     FM290000 17004KT P6SM SKC
      TEMPO 2909/2912 2SM BR=



000
FTUS44 KSHV 281126
TAFELD
TAF
KELD 281126Z 2812/2912 00000KT P6SM SKC
      TEMPO 2812/2814 3SM BR
     FM281500 13007KT P6SM BKN120
     FM282300 10008KT P6SM SCT250
     FM290400 07005KT P6SM BKN012
      TEMPO 2908/2912 3SM BR OVC005=



000
FTUS44 KSHV 281126
TAFTYR
TAF
KTYR 281126Z 2812/2912 10006KT P6SM SKC
     FM281500 19010KT P6SM SCT250
     FM290000 14007KT P6SM SKC=



000
FTUS44 KSHV 281126
TAFSHV
TAF
KSHV 281126Z 2812/2912 15005KT P6SM SCT250
     FM281700 15008KT P6SM SCT120 BKN250
     FM290000 09004KT P6SM SCT250
      TEMPO 2908/2912 4SM BR BKN010=



000
FTUS44 KSHV 281126
TAFMLU
TAF
KMLU 281126Z 2812/2912 VRB03KT P6SM SKC
      TEMPO 2812/2814 3SM BR
     FM281800 12006KT P6SM BKN120
     FM290100 09008KT P6SM SCT250
     FM290600 08005KT P6SM BKN015
      TEMPO 2908/2912 2SM BR OVC005=



000
FTUS44 KSHV 281126
TAFGGG
TAF
KGGG 281126Z 2812/2912 15005KT P6SM SKC
     FM281500 18010KT P6SM BKN250
     FM290000 13006KT P6SM SKC
      TEMPO 2910/2912 3SM BR=



000
FTUS44 KSHV 281120
TAFTXK
TAF
KTXK 281120Z 2812/2912 11004KT P6SM FEW250
     FM281500 15006KT P6SM SCT250
     FM290000 07004KT P6SM SCT250=



000
FTUS44 KSHV 281120
TAFMLU
TAF
KMLU 281120Z 2812/2912 06004KT P6SM SKC
      TEMPO 2812/2813 10003KT 2SM BR
     FM281300 13007KT P6SM SCT250
     FM290000 07005KT P6SM SCT250=



000
FTUS44 KSHV 281120
TAFSHV
TAF
KSHV 281120Z 2812/2912 35004KT P6SM SKC
     FM281500 15008KT P6SM FEW120 SCT250
     FM281800 19007KT P6SM SCT250
     FM290000 09004KT P6SM BKN250=



000
FTUS44 KSHV 281120
TAFTYR
TAF
KTYR 281120Z 2812/2912 13005KT P6SM FEW250
     FM281500 19010KT P6SM FEW150 SCT250
     FM290000 15006KT P6SM SCT250=



000
FTUS44 KSHV 281120
TAFGGG
TAF
KGGG 281120Z 2812/2912 12005KT P6SM SCT250
     FM281500 19009KT P6SM SCT150 SCT250
     FM290000 15003KT P6SM SCT250=



000
FTUS44 KSHV 281120
TAFELD
TAF
KELD 281120Z 2812/2912 VRB03KT P6SM SKC
     FM281500 12007KT P6SM FEW120 SCT250
     FM290000 06009KT P6SM SKC=



000
FTUS44 KSHV 281120
TAFLFK
TAF
KLFK 281120Z 2812/2912 08004KT P6SM SKC
     FM281500 20007KT P6SM FEW250
     FM290000 19003KT P6SM SKC=



000
FTUS44 KSHV 281120
TAFLFK
TAF
KLFK 281120Z 2812/2912 08004KT P6SM SKC
     FM281500 20007KT P6SM FEW250
     FM290000 19003KT P6SM SKC=



000
FTUS44 KSHV 281120
TAFTYR
TAF
KTYR 281120Z 2812/2912 13005KT P6SM FEW250
     FM281500 19010KT P6SM FEW150 SCT250
     FM290000 15006KT P6SM SCT250=



000
FTUS44 KSHV 281120
TAFSHV
TAF
KSHV 281120Z 2812/2912 35004KT P6SM SKC
     FM281500 15008KT P6SM FEW120 SCT250
     FM281800 19007KT P6SM SCT250
     FM290000 09004KT P6SM BKN250=



000
FTUS44 KSHV 281120
TAFGGG
TAF
KGGG 281120Z 2812/2912 12005KT P6SM SCT250
     FM281500 19009KT P6SM SCT150 SCT250
     FM290000 15003KT P6SM SCT250=



000
FTUS44 KSHV 281120
TAFMLU
TAF
KMLU 281120Z 2812/2912 06004KT P6SM SKC
      TEMPO 2812/2813 10003KT 2SM BR
     FM281300 13007KT P6SM SCT250
     FM290000 07005KT P6SM SCT250=



000
FTUS44 KSHV 281120
TAFTXK
TAF
KTXK 281120Z 2812/2912 11004KT P6SM FEW250
     FM281500 15006KT P6SM SCT250
     FM290000 07004KT P6SM SCT250=



000
FTUS44 KSHV 281120
TAFELD
TAF
KELD 281120Z 2812/2912 VRB03KT P6SM SKC
     FM281500 12007KT P6SM FEW120 SCT250
     FM290000 06009KT P6SM SKC=



000
FTUS44 KSHV 280526
TAFGGG
TAF
KGGG 280526Z 2806/2906 VRB04KT P6SM SKC
     FM280900 12005KT P6SM SCT250
     FM281500 19009KT P6SM SCT150 SCT250
     FM290000 15003KT P6SM SCT250=



000
FTUS44 KSHV 280526
TAFMLU
TAF
KMLU 280526Z 2806/2906 06004KT P6SM SKC
      TEMPO 2810/2813 10003KT 2SM BR
     FM281300 13007KT P6SM SCT250
     FM290000 07005KT P6SM SCT250=



000
FTUS44 KSHV 280526
TAFTYR
TAF
KTYR 280526Z 2806/2906 06003KT P6SM SKC
     FM280900 13005KT P6SM FEW250
     FM281500 19010KT P6SM FEW150 SCT250
     FM290000 15006KT P6SM SCT250=



000
FTUS44 KSHV 280526
TAFSHV
TAF
KSHV 280526Z 2806/2906 35004KT P6SM SKC
     FM281500 15008KT P6SM FEW120 SCT250
     FM281800 19007KT P6SM SCT250
     FM290000 09004KT P6SM BKN250=



000
FTUS44 KSHV 280526
TAFLFK
TAF
KLFK 280526Z 2806/2906 02006KT P6SM SKC
     FM280700 08004KT P6SM SKC
     FM281500 20007KT P6SM FEW250
     FM290000 19003KT P6SM SKC=



000
FTUS44 KSHV 280526
TAFELD
TAF
KELD 280526Z 2806/2906 VRB03KT P6SM SKC
     FM281500 12007KT P6SM FEW120 SCT250
     FM290000 06009KT P6SM SKC=



000
FTUS44 KSHV 280526
TAFTXK
TAF
KTXK 280526Z 2806/2906 VRB03KT P6SM SKC
     FM280900 11004KT P6SM FEW250
     FM281500 15006KT P6SM SCT250
     FM290000 07004KT P6SM SCT250=



000
FTUS44 KSHV 280526
TAFMLU
TAF
KMLU 280526Z 2806/2906 06004KT P6SM SKC
      TEMPO 2810/2813 10003KT 2SM BR
     FM281300 13007KT P6SM SCT250
     FM290000 07005KT P6SM SCT250=



000
FTUS44 KSHV 280526
TAFGGG
TAF
KGGG 280526Z 2806/2906 VRB04KT P6SM SKC
     FM280900 12005KT P6SM SCT250
     FM281500 19009KT P6SM SCT150 SCT250
     FM290000 15003KT P6SM SCT250=



000
FTUS44 KSHV 280526
TAFSHV
TAF
KSHV 280526Z 2806/2906 35004KT P6SM SKC
     FM281500 15008KT P6SM FEW120 SCT250
     FM281800 19007KT P6SM SCT250
     FM290000 09004KT P6SM BKN250=



000
FTUS44 KSHV 280526
TAFTXK
TAF
KTXK 280526Z 2806/2906 VRB03KT P6SM SKC
     FM280900 11004KT P6SM FEW250
     FM281500 15006KT P6SM SCT250
     FM290000 07004KT P6SM SCT250=



000
FTUS44 KSHV 280526
TAFLFK
TAF
KLFK 280526Z 2806/2906 02006KT P6SM SKC
     FM280700 08004KT P6SM SKC
     FM281500 20007KT P6SM FEW250
     FM290000 19003KT P6SM SKC=



000
FTUS44 KSHV 280526
TAFELD
TAF
KELD 280526Z 2806/2906 VRB03KT P6SM SKC
     FM281500 12007KT P6SM FEW120 SCT250
     FM290000 06009KT P6SM SKC=



000
FTUS44 KSHV 280526
TAFTYR
TAF
KTYR 280526Z 2806/2906 06003KT P6SM SKC
     FM280900 13005KT P6SM FEW250
     FM281500 19010KT P6SM FEW150 SCT250
     FM290000 15006KT P6SM SCT250=



000
FTUS44 KSHV 272340
TAFTXK
TAF
KTXK 272340Z 2800/2824 36012KT P6SM SKC
     FM280200 01005KT P6SM SCT250
     FM280700 11004KT P6SM FEW250
     FM281500 18008KT P6SM SCT250=



000
FTUS44 KSHV 272340
TAFLFK
TAF
KLFK 272340Z 2800/2824 33010G15KT P6SM SKC
     FM280200 02005KT P6SM SKC
     FM280700 08004KT P6SM SKC
     FM281500 20007KT P6SM FEW250=



000
FTUS44 KSHV 272340
TAFGGG
TAF
KGGG 272340Z 2800/2824 32012KT P6SM SKC
     FM280200 02005KT P6SM FEW120 SCT250
     FM280700 12005KT P6SM SCT250
     FM281500 19009KT P6SM SCT150 SCT250=



000
FTUS44 KSHV 272340
TAFELD
TAF
KELD 272340Z 2800/2824 33007KT P6SM SKC
     FM280200 VRB03KT P6SM FEW250
     FM281500 15007KT P6SM FEW120 SCT250=



000
FTUS44 KSHV 272340
TAFMLU
TAF
KMLU 272340Z 2800/2824 05008KT P6SM SKC
     FM280300 06003KT P6SM FEW250
      TEMPO 2810/2813 2SM BR
     FM281300 13007KT P6SM SCT250=



000
FTUS44 KSHV 272340
TAFSHV
TAF
KSHV 272340Z 2800/2824 32010KT P6SM FEW270
     FM280100 34005KT P6SM FEW120 SCT250
     FM280600 VRB03KT P6SM FEW250
     FM281500 17008KT P6SM FEW120 SCT250=



000
FTUS44 KSHV 272340
TAFTYR
TAF
KTYR 272340Z 2800/2824 36013KT P6SM SKC
     FM280200 02005KT P6SM SCT250
     FM280700 14005KT P6SM FEW250
     FM281500 19010KT P6SM FEW150 SCT250=



000
FTUS44 KSHV 272340
TAFELD
TAF
KELD 272340Z 2800/2824 33007KT P6SM SKC
     FM280200 VRB03KT P6SM FEW250
     FM281500 15007KT P6SM FEW120 SCT250=



000
FTUS44 KSHV 272340
TAFTYR
TAF
KTYR 272340Z 2800/2824 36013KT P6SM SKC
     FM280200 02005KT P6SM SCT250
     FM280700 14005KT P6SM FEW250
     FM281500 19010KT P6SM FEW150 SCT250=



000
FTUS44 KSHV 272340
TAFGGG
TAF
KGGG 272340Z 2800/2824 32012KT P6SM SKC
     FM280200 02005KT P6SM FEW120 SCT250
     FM280700 12005KT P6SM SCT250
     FM281500 19009KT P6SM SCT150 SCT250=



000
FTUS44 KSHV 272340
TAFSHV
TAF
KSHV 272340Z 2800/2824 32010KT P6SM FEW270
     FM280100 34005KT P6SM FEW120 SCT250
     FM280600 VRB03KT P6SM FEW250
     FM281500 17008KT P6SM FEW120 SCT250=



000
FTUS44 KSHV 272340
TAFMLU
TAF
KMLU 272340Z 2800/2824 05008KT P6SM SKC
     FM280300 06003KT P6SM FEW250
      TEMPO 2810/2813 2SM BR
     FM281300 13007KT P6SM SCT250=



000
FTUS44 KSHV 272340
TAFTXK
TAF
KTXK 272340Z 2800/2824 36012KT P6SM SKC
     FM280200 01005KT P6SM SCT250
     FM280700 11004KT P6SM FEW250
     FM281500 18008KT P6SM SCT250=



000
FTUS44 KSHV 272340
TAFLFK
TAF
KLFK 272340Z 2800/2824 33010G15KT P6SM SKC
     FM280200 02005KT P6SM SKC
     FM280700 08004KT P6SM SKC
     FM281500 20007KT P6SM FEW250=



    US Dept of Commerce
    National Oceanic and Atmospheric Administration
    National Weather Service
    1325 East West Highway
    Silver Spring, MD 20910
    Page Author: NWS Internet Services Team
Disclaimer
Information Quality
Credits
Glossary
Privacy Policy
Freedom of Information Act (FOIA)
About Us
Career Opportunities